Time;durP1;ratioP1;P1;durP2;ratioP2;P2;SDS_P1;SDS_P2;PMS_P1;PMS_P2;Temp;Humidity;BMP_temperature;BMP_pressure;BME280_temperature;BME280_humidity;BME280_pressure;Samples;Min_cycle;Max_cycle;Signal;HPM_P1;HPM_P2
2022/06/20 00:00:27;;;;;;;2.10;1.50;;;;;;;21.82;41.81;96178.87;107101;1274;76471;-76
2022/06/20 00:03:13;;;;;;;3.60;1.80;;;;;;;21.80;42.03;96175.65;107248;1274;34484;-76
2022/06/20 00:05:44;;;;;;;2.60;1.90;;;;;;;21.79;42.14;96172.55;107153;1274;76478;-75
2022/06/20 00:08:16;;;;;;;2.70;1.80;;;;;;;21.79;42.07;96165.91;107105;1274;89450;-75
2022/06/20 00:10:50;;;;;;;3.50;1.70;;;;;;;21.79;42.03;96159.29;107262;1274;47208;-76
2022/06/20 00:13:25;;;;;;;4.70;1.80;;;;;;;21.80;41.75;96164.63;107052;1274;117545;-76
2022/06/20 00:15:57;;;;;;;3.50;1.40;;;;;;;21.79;42.09;96162.38;106716;1274;105364;-76
2022/06/20 00:18:29;;;;;;;3.30;1.60;;;;;;;21.79;42.04;96155.89;107196;1275;44805;-75
2022/06/20 00:21:02;;;;;;;1.70;1.50;;;;;;;21.79;41.84;96150.89;106809;1275;93765;-76
2022/06/20 00:23:33;;;;;;;3.40;2.00;;;;;;;21.81;41.68;96144.15;106632;1274;140344;-76
2022/06/20 00:26:05;;;;;;;2.60;1.80;;;;;;;21.86;41.77;96148.01;104083;1274;1911548;-75
2022/06/20 00:28:36;;;;;;;3.10;1.70;;;;;;;21.85;41.76;96148.98;106854;1275;95969;-76
2022/06/20 00:31:07;;;;;;;2.40;1.50;;;;;;;21.84;41.51;96151.99;106802;1274;186054;-76
2022/06/20 00:33:39;;;;;;;2.80;1.90;;;;;;;21.84;41.63;96153.30;107185;1274;36042;-76
2022/06/20 00:36:10;;;;;;;3.70;1.90;;;;;;;21.80;41.54;96154.36;107229;1274;56527;-75
2022/06/20 00:38:41;;;;;;;3.70;1.70;;;;;;;21.79;41.56;96156.67;107019;1274;119921;-76
2022/06/20 00:41:19;;;;;;;3.70;1.50;;;;;;;21.82;41.51;96152.64;107210;1274;42909;-76
2022/06/20 00:43:53;;;;;;;3.30;1.60;;;;;;;21.84;41.39;96153.98;107211;1274;35491;-76
2022/06/20 00:46:30;;;;;;;4.50;1.60;;;;;;;21.85;41.19;96151.77;106857;1274;124193;-76
2022/06/20 00:49:08;;;;;;;5.70;1.70;;;;;;;21.89;41.07;96146.34;107175;1275;58103;-75
2022/06/20 00:51:43;;;;;;;1.90;1.40;;;;;;;21.86;41.28;96147.09;107125;1274;94396;-75
2022/06/20 00:54:23;;;;;;;2.40;1.60;;;;;;;21.84;41.29;96145.58;107174;1275;44432;-76
2022/06/20 00:56:59;;;;;;;4.20;2.00;;;;;;;21.82;41.28;96148.41;107194;1274;45381;-75
2022/06/20 00:59:34;;;;;;;1.50;1.40;;;;;;;21.79;41.49;96146.17;107179;1274;61605;-75
2022/06/20 01:02:07;;;;;;;2.80;1.60;;;;;;;21.77;41.48;96148.39;107223;1274;52636;-75
2022/06/20 01:04:43;;;;;;;2.50;1.60;;;;;;;21.80;41.45;96146.81;107041;1274;101506;-75
2022/06/20 01:07:20;;;;;;;4.50;1.50;;;;;;;21.82;41.38;96149.26;107101;1274;136926;-76
2022/06/20 01:09:55;;;;;;;3.30;1.40;;;;;;;21.83;41.24;96145.96;107170;1274;122703;-76
2022/06/20 01:12:30;;;;;;;2.00;1.30;;;;;;;21.81;41.44;96141.05;107138;1274;65937;-76
2022/06/20 01:15:01;;;;;;;1.80;1.40;;;;;;;21.80;41.35;96141.80;107085;1274;78639;-76
2022/06/20 01:17:36;;;;;;;3.50;1.60;;;;;;;21.77;41.52;96140.52;107212;1275;37017;-76
2022/06/20 01:20:18;;;;;;;2.70;1.60;;;;;;;21.73;41.62;96143.40;107182;1274;35185;-76
2022/06/20 01:22:59;;;;;;;2.60;1.90;;;;;;;21.73;41.60;96139.48;107048;1275;89663;-75
2022/06/20 01:25:58;;;;;;;3.30;1.60;;;;;;;21.75;41.52;96136.17;107118;1275;79237;-76
2022/06/20 01:28:34;;;;;;;4.20;1.40;;;;;;;21.71;41.51;96146.00;107093;1275;35203;-76
2022/06/20 01:31:07;;;;;;;1.90;1.40;;;;;;;21.72;41.61;96142.85;107155;1275;71199;-76
2022/06/20 01:33:39;;;;;;;1.80;1.10;;;;;;;21.71;41.64;96139.59;106879;1274;118292;-75
2022/06/20 01:39:03;;;;;;;2.50;1.50;;;;;;;21.70;41.56;96125.00;107066;1274;141709;-76
2022/06/20 01:44:24;;;;;;;1.80;1.30;;;;;;;21.66;41.62;96122.62;107209;1274;66810;-76
2022/06/20 01:46:55;;;;;;;2.60;1.40;;;;;;;21.63;41.75;96125.51;107136;1274;68578;-76
2022/06/20 01:49:30;;;;;;;3.40;1.70;;;;;;;21.63;41.85;96133.91;106595;1274;172286;-76
2022/06/20 01:52:06;;;;;;;3.20;1.50;;;;;;;21.59;41.87;96132.00;107258;1274;41104;-76
2022/06/20 01:54:45;;;;;;;2.30;1.60;;;;;;;21.53;41.89;96129.97;107116;1274;35249;-76
2022/06/20 01:57:18;;;;;;;2.20;1.20;;;;;;;21.48;42.01;96123.10;106758;1274;156774;-76
2022/06/20 01:59:56;;;;;;;1.60;1.30;;;;;;;21.48;42.15;96124.48;107125;1274;79104;-76
2022/06/20 02:02:32;;;;;;;1.80;1.40;;;;;;;21.47;42.12;96124.02;107185;1274;72307;-75
2022/06/20 02:05:05;;;;;;;1.70;1.20;;;;;;;21.44;42.15;96130.14;106988;1274;143875;-75
2022/06/20 02:07:37;;;;;;;2.70;1.20;;;;;;;21.49;42.15;96128.74;106745;1275;130970;-76
2022/06/20 02:10:12;;;;;;;2.60;1.20;;;;;;;21.55;42.01;96120.60;105743;1275;1411503;-75
2022/06/20 02:12:46;;;;;;;4.60;1.60;;;;;;;21.57;42.03;96129.27;106566;1274;216475;-75
2022/06/20 02:15:19;;;;;;;2.20;1.40;;;;;;;21.53;42.02;96126.34;106680;1277;126394;-75
2022/06/20 02:17:52;;;;;;;3.90;1.20;;;;;;;21.46;42.11;96125.23;106842;1275;94539;-75
2022/06/20 02:20:27;;;;;;;2.00;1.40;;;;;;;21.38;42.31;96122.33;106535;1275;158262;-76
2022/06/20 02:23:00;;;;;;;1.40;1.30;;;;;;;21.38;42.32;96124.84;106729;1274;157411;-76
2022/06/20 02:25:35;;;;;;;2.10;1.10;;;;;;;21.33;42.44;96123.40;104896;1274;2308992;-75
2022/06/20 02:28:10;;;;;;;2.60;1.30;;;;;;;21.32;42.44;96120.67;105676;1275;1518469;-76
2022/06/20 02:30:42;;;;;;;3.20;1.50;;;;;;;21.26;42.62;96117.80;106881;1274;80386;-75
2022/06/20 02:33:18;;;;;;;2.00;1.60;;;;;;;21.21;42.78;96122.91;105269;1275;2316406;-75
2022/06/20 02:35:50;;;;;;;3.10;1.50;;;;;;;21.18;42.92;96124.40;107141;1275;56309;-75
2022/06/20 02:38:21;;;;;;;1.50;1.30;;;;;;;21.14;43.03;96120.87;107055;1274;68305;-77
2022/06/20 02:40:55;;;;;;;2.80;1.80;;;;;;;21.19;43.00;96115.19;107025;1274;94133;-75
2022/06/20 02:43:35;;;;;;;2.50;1.50;;;;;;;21.23;42.80;96114.23;105573;1274;1832193;-76
2022/06/20 02:46:12;;;;;;;2.90;1.60;;;;;;;21.26;42.68;96116.58;107106;1274;102258;-75
2022/06/20 02:48:47;;;;;;;1.80;1.40;;;;;;;21.26;42.78;96106.89;105897;1275;1758794;-75
2022/06/20 02:51:24;;;;;;;2.30;1.30;;;;;;;21.24;42.84;96108.17;107282;1274;36314;-75
2022/06/20 02:53:59;;;;;;;2.50;1.60;;;;;;;21.21;42.98;96109.75;107197;1274;77400;-76
2022/06/20 02:56:37;;;;;;;1.60;1.50;;;;;;;21.16;42.95;96106.35;105716;1274;1750219;-75
2022/06/20 02:59:16;;;;;;;1.90;1.30;;;;;;;21.15;43.12;96108.34;107109;1275;69373;-75
2022/06/20 03:01:57;;;;;;;1.70;1.30;;;;;;;21.13;43.25;96107.23;107162;1275;67679;-75
2022/06/20 03:04:33;;;;;;;2.30;1.70;;;;;;;21.12;43.22;96105.35;106813;1275;145458;-76
2022/06/20 03:07:10;;;;;;;5.20;1.80;;;;;;;21.11;43.45;96094.63;105448;1274;1819558;-76
2022/06/20 03:09:45;;;;;;;1.80;1.40;;;;;;;21.10;43.52;96093.06;106925;1274;87751;-75
2022/06/20 03:12:17;;;;;;;3.80;1.70;;;;;;;21.11;43.52;96100.41;106783;1275;162602;-75
2022/06/20 03:14:52;;;;;;;4.10;1.80;;;;;;;21.14;43.44;96108.56;106909;1275;196572;-75
2022/06/20 03:17:25;;;;;;;2.90;1.30;;;;;;;21.17;43.55;96086.80;106755;1274;99761;-76
2022/06/20 03:19:59;;;;;;;2.90;1.40;;;;;;;21.17;43.48;96082.96;106742;1274;116414;-75
2022/06/20 03:22:42;;;;;;;3.80;1.60;;;;;;;21.19;43.54;96088.08;105289;1275;2082283;-75
2022/06/20 03:25:17;;;;;;;2.30;1.30;;;;;;;21.20;43.60;96086.23;106441;1274;217725;-75
2022/06/20 03:27:51;;;;;;;1.30;1.20;;;;;;;21.20;43.51;96093.71;106496;1274;203756;-75
2022/06/20 03:30:29;;;;;;;3.20;1.50;;;;;;;21.22;43.57;96095.35;107244;1275;89813;-75
2022/06/20 03:33:02;;;;;;;2.30;1.60;;;;;;;21.20;43.75;96092.32;107202;1274;51863;-75
2022/06/20 03:35:34;;;;;;;2.80;1.60;;;;;;;21.19;43.81;96095.85;107242;1274;33705;-76
2022/06/20 03:38:08;;;;;;;2.50;1.50;;;;;;;21.19;44.03;96095.00;107197;1274;65519;-75
2022/06/20 03:40:40;;;;;;;2.90;1.30;;;;;;;21.18;44.00;96087.98;107101;1275;72580;-75
2022/06/20 03:43:18;;;;;;;3.60;1.30;;;;;;;21.18;44.01;96106.47;106977;1274;67828;-76
2022/06/20 03:45:55;;;;;;;3.30;1.60;;;;;;;21.21;44.20;96104.36;107231;1275;50418;-75
2022/06/20 03:48:33;;;;;;;2.40;1.40;;;;;;;21.21;44.21;96106.20;106954;1274;125645;-76
2022/06/20 03:51:07;;;;;;;1.50;1.30;;;;;;;21.22;44.31;96105.52;106897;1274;98249;-75
2022/06/20 03:53:44;;;;;;;2.70;1.50;;;;;;;21.23;44.39;96099.85;107225;1275;34804;-75
2022/06/20 03:56:21;;;;;;;2.90;1.40;;;;;;;21.25;44.43;96099.58;107317;1275;34657;-75
2022/06/20 03:58:59;;;;;;;4.10;1.80;;;;;;;21.26;44.58;96100.11;107092;1275;71718;-75
2022/06/20 04:01:36;;;;;;;4.10;1.80;;;;;;;21.29;44.53;96105.01;107356;1274;45615;-75
2022/06/20 04:04:15;;;;;;;3.30;1.70;;;;;;;21.35;44.55;96105.23;107427;1274;35953;-75
2022/06/20 04:06:52;;;;;;;2.50;1.40;;;;;;;21.38;44.43;96101.98;107254;1274;72398;-75
2022/06/20 04:12:26;;;;;;;2.20;1.70;;;;;;;21.47;44.47;96101.65;107430;1274;37445;-75
2022/06/20 04:15:02;;;;;;;3.00;1.60;;;;;;;21.52;44.32;96112.05;107146;1274;97962;-75
2022/06/20 04:20:40;;;;;;;4.70;1.60;;;;;;;21.63;44.43;96112.71;107322;1275;36491;-76
2022/06/20 04:23:16;;;;;;;2.20;1.10;;;;;;;21.68;43.98;96115.35;107113;1275;73223;-75
2022/06/20 04:25:53;;;;;;;1.80;1.30;;;;;;;21.72;43.79;96109.71;107379;1274;44002;-75
2022/06/20 04:28:29;;;;;;;3.90;1.30;;;;;;;21.78;43.67;96119.96;107300;1274;48451;-75
2022/06/20 04:31:11;;;;;;;2.20;1.50;;;;;;;21.86;43.64;96120.70;107213;1274;47340;-75
2022/06/20 04:33:46;;;;;;;2.90;1.60;;;;;;;21.95;43.85;96123.67;107229;1275;32831;-75
2022/06/20 04:36:31;;;;;;;3.90;1.90;;;;;;;22.02;43.89;96120.78;107417;1274;31192;-75
2022/06/20 04:39:14;;;;;;;2.90;1.80;;;;;;;22.02;44.10;96120.94;107266;1274;49702;-75
2022/06/20 04:41:49;;;;;;;2.00;1.70;;;;;;;22.09;44.27;96132.86;107152;1275;99961;-75
2022/06/20 04:44:30;;;;;;;5.10;1.50;;;;;;;22.17;43.77;96130.67;107347;1275;35414;-75
2022/06/20 04:47:24;;;;;;;1.50;1.40;;;;;;;22.17;43.70;96132.20;107366;1275;32915;-75
2022/06/20 04:49:56;;;;;;;2.70;1.40;;;;;;;22.26;43.80;96132.81;107224;1274;68957;-75
2022/06/20 04:52:30;;;;;;;3.10;1.60;;;;;;;22.26;43.81;96139.38;107098;1274;319708;-75
2022/06/20 04:55:02;;;;;;;3.20;1.70;;;;;;;22.32;44.19;96140.66;107335;1274;37027;-75
2022/06/20 04:57:35;;;;;;;1.70;1.50;;;;;;;22.38;43.72;96142.30;107357;1274;39863;-75
2022/06/20 05:00:15;;;;;;;3.70;2.20;;;;;;;22.48;43.93;96145.52;107028;1274;130424;-76
2022/06/20 05:02:47;;;;;;;3.00;1.90;;;;;;;22.60;43.93;96151.07;107445;1275;28446;-72
2022/06/20 05:05:22;;;;;;;2.40;1.80;;;;;;;22.73;43.52;96144.75;107391;1275;32218;-72
2022/06/20 05:07:54;;;;;;;2.00;1.70;;;;;;;22.80;43.35;96144.63;107312;1274;41559;-73
2022/06/20 05:10:31;;;;;;;2.80;1.50;;;;;;;22.91;43.23;96146.15;107326;1274;30293;-72
2022/06/20 05:13:09;;;;;;;2.70;1.70;;;;;;;23.10;42.82;96136.62;107330;1274;37166;-72
2022/06/20 05:15:42;;;;;;;2.30;1.80;;;;;;;23.27;42.98;96142.98;107241;1274;41902;-72
2022/06/20 05:18:22;;;;;;;3.50;1.80;;;;;;;23.55;42.62;96139.39;107320;1274;42938;-73
2022/06/20 05:20:58;;;;;;;4.10;1.90;;;;;;;23.80;42.05;96137.66;107245;1274;40198;-73
2022/06/20 05:23:35;;;;;;;2.40;1.80;;;;;;;24.16;41.59;96136.85;107214;1276;45067;-72
2022/06/20 05:26:09;;;;;;;7.20;2.00;;;;;;;25.32;40.38;96140.42;107055;1274;97464;-73
2022/06/20 05:28:42;;;;;;;4.00;1.90;;;;;;;27.36;39.05;96146.95;107114;1274;33456;-73
2022/06/20 05:31:16;;;;;;;3.40;1.60;;;;;;;29.33;36.34;96147.63;107107;1274;43506;-72
2022/06/20 05:33:52;;;;;;;6.60;1.80;;;;;;;30.42;32.64;96145.95;107217;1274;42437;-73
2022/06/20 05:36:28;;;;;;;2.70;1.80;;;;;;;30.58;31.79;96146.58;107272;1275;38632;-73
2022/06/20 05:39:05;;;;;;;4.10;1.60;;;;;;;30.85;31.26;96159.61;107206;1275;46309;-74
2022/06/20 05:41:36;;;;;;;2.40;1.60;;;;;;;31.93;31.88;96164.67;107247;1275;38648;-75
2022/06/20 05:44:11;;;;;;;2.80;1.70;;;;;;;32.99;29.45;96164.14;107198;1275;34711;-75
2022/06/20 05:46:48;;;;;;;3.10;1.90;;;;;;;32.92;28.60;96163.42;107248;1275;34930;-75
2022/06/20 05:49:25;;;;;;;4.60;1.60;;;;;;;33.26;28.44;96166.98;107318;1273;37054;-75
2022/06/20 05:51:59;;;;;;;2.40;1.70;;;;;;;33.80;28.16;96172.80;107183;1274;42536;-74
2022/06/20 05:54:35;;;;;;;2.40;1.50;;;;;;;34.25;26.35;96172.61;107180;1274;49173;-74
2022/06/20 05:57:13;;;;;;;2.30;1.50;;;;;;;34.66;26.72;96166.98;107228;1274;109878;-74
2022/06/20 05:59:46;;;;;;;1.80;1.30;;;;;;;34.95;25.25;96174.58;107244;1274;34992;-75
2022/06/20 06:02:24;;;;;;;4.20;1.50;;;;;;;34.77;25.57;96165.98;107262;1275;30309;-74
2022/06/20 06:05:04;;;;;;;2.40;1.30;;;;;;;35.61;25.78;96175.45;107200;1274;47561;-75
2022/06/20 06:07:40;;;;;;;2.60;1.30;;;;;;;36.08;24.78;96171.73;107215;1274;45937;-75
2022/06/20 06:10:33;;;;;;;2.10;1.40;;;;;;;36.44;24.85;96175.96;107286;1274;35989;-75
2022/06/20 06:13:14;;;;;;;2.80;1.70;;;;;;;37.24;23.74;96175.10;107225;1278;35426;-74
2022/06/20 06:18:52;;;;;;;1.60;1.10;;;;;;;38.18;22.55;96172.89;107265;1275;33124;-74
2022/06/20 06:21:26;;;;;;;1.80;1.40;;;;;;;38.04;22.51;96174.21;107212;1274;45932;-76
2022/06/20 06:23:59;;;;;;;1.50;1.30;;;;;;;38.27;22.58;96167.95;107120;1274;48827;-75
2022/06/20 06:26:30;;;;;;;3.30;1.50;;;;;;;38.68;22.33;96164.74;107101;1274;51642;-74
2022/06/20 06:29:02;;;;;;;2.80;1.20;;;;;;;38.99;21.69;96164.88;107212;1274;37417;-76
2022/06/20 06:31:40;;;;;;;3.40;1.30;;;;;;;39.66;21.62;96160.15;107134;1274;79349;-75
2022/06/20 06:34:20;;;;;;;2.60;1.30;;;;;;;39.70;21.01;96162.23;107137;1274;44926;-75
2022/06/20 06:36:55;;;;;;;1.70;1.30;;;;;;;40.08;21.05;96165.56;107229;1274;67382;-74
2022/06/20 06:39:33;;;;;;;2.90;1.40;;;;;;;40.15;19.69;96160.48;107197;1274;36712;-75
2022/06/20 06:42:13;;;;;;;1.80;1.10;;;;;;;39.60;20.05;96154.25;107291;1274;35042;-74
2022/06/20 06:44:48;;;;;;;2.60;1.20;;;;;;;39.10;20.72;96151.71;107237;1275;37269;-75
2022/06/20 06:47:24;;;;;;;2.40;1.20;;;;;;;39.47;20.20;96150.82;107304;1274;31973;-75
2022/06/20 06:49:58;;;;;;;3.40;1.50;;;;;;;39.16;20.10;96150.14;107223;1274;43439;-75
2022/06/20 06:52:36;;;;;;;3.50;1.50;;;;;;;39.53;20.16;96143.20;107185;1274;52338;-74
2022/06/20 06:55:24;;;;;;;2.20;1.30;;;;;;;40.12;19.97;96150.58;107227;1274;33073;-75
2022/06/20 06:58:08;;;;;;;2.30;1.30;;;;;;;40.97;19.98;96149.88;107234;1274;33795;-76
2022/06/20 07:00:45;;;;;;;1.60;1.10;;;;;;;42.30;19.50;96147.61;107196;1274;33267;-75
2022/06/20 07:03:21;;;;;;;3.20;1.40;;;;;;;42.80;18.50;96145.06;107216;1275;33197;-75
2022/06/20 07:05:58;;;;;;;2.10;1.20;;;;;;;43.49;18.63;96137.95;107216;1274;46727;-76
2022/06/20 07:08:34;;;;;;;3.20;1.40;;;;;;;43.62;17.25;96135.05;107232;1274;29479;-75
2022/06/20 07:11:11;;;;;;;1.50;1.10;;;;;;;42.81;17.48;96129.00;107226;1275;34988;-75
2022/06/20 07:13:49;;;;;;;2.60;1.20;;;;;;;42.73;17.55;96127.56;107133;1274;47703;-76
2022/06/20 07:16:27;;;;;;;2.00;1.10;;;;;;;42.87;17.79;96129.52;107263;1274;44501;-75
2022/06/20 07:19:00;;;;;;;3.40;1.10;;;;;;;43.68;17.63;96126.96;107235;1274;49409;-75
2022/06/20 07:21:34;;;;;;;3.10;1.40;;;;;;;43.76;16.92;96125.13;107360;1274;28740;-76
2022/06/20 07:24:09;;;;;;;4.30;1.60;;;;;;;43.73;17.36;96121.73;107165;1275;56070;-75
2022/06/20 07:26:47;;;;;;;3.90;1.60;;;;;;;44.56;17.43;96124.14;107132;1277;79006;-77
2022/06/20 07:29:22;;;;;;;2.80;1.50;;;;;;;45.49;16.87;96125.35;107385;1274;32172;-76
2022/06/20 07:31:57;;;;;;;4.10;1.50;;;;;;;45.27;15.78;96126.09;107338;1274;35871;-78
2022/06/20 07:34:34;;;;;;;4.40;1.60;;;;;;;44.49;15.75;96120.16;107272;1278;30490;-78
2022/06/20 07:37:10;;;;;;;2.30;1.30;;;;;;;44.31;16.38;96118.31;107154;1277;32564;-75
2022/06/20 07:39:48;;;;;;;4.70;2.10;;;;;;;44.86;16.15;96113.71;107166;1274;39665;-75
2022/06/20 07:42:24;;;;;;;4.60;1.60;;;;;;;45.24;16.36;96110.64;106753;1276;216003;-77
2022/06/20 07:44:59;;;;;;;2.70;1.60;;;;;;;45.47;15.05;96115.58;107238;1274;36858;-76
2022/06/20 07:47:34;;;;;;;3.40;1.30;;;;;;;44.38;15.33;96112.88;107017;1274;104673;-78
2022/06/20 07:50:10;;;;;;;1.60;1.30;;;;;;;43.90;15.51;96106.71;107172;1274;62634;-77
2022/06/20 07:52:49;;;;;;;2.60;1.40;;;;;;;43.20;16.06;96111.77;107291;1274;47542;-77
2022/06/20 07:55:23;;;;;;;2.30;1.70;;;;;;;43.28;15.80;96103.14;107399;1274;36378;-77
2022/06/20 07:58:00;;;;;;;4.40;1.80;;;;;;;42.01;16.06;96102.40;107263;1273;49755;-77
2022/06/20 08:00:37;;;;;;;5.20;1.50;;;;;;;42.17;16.63;96093.52;107306;1277;33058;-76
2022/06/20 08:03:17;;;;;;;3.50;1.40;;;;;;;42.98;16.34;96085.88;107241;1277;34418;-78
2022/06/20 08:05:54;;;;;;;4.70;1.90;;;;;;;43.86;15.72;96081.94;107348;1274;59233;-77
2022/06/20 08:08:29;;;;;;;1.90;1.70;;;;;;;44.34;15.00;96084.52;104545;1274;1787464;-77
2022/06/20 08:11:06;;;;;;;4.40;1.70;;;;;;;44.12;15.02;96079.48;107147;1274;70615;-77
2022/06/20 08:13:45;;;;;;;3.40;1.70;;;;;;;43.34;15.01;96070.39;107247;1274;66441;-78
2022/06/20 08:16:23;;;;;;;4.60;1.90;;;;;;;42.58;15.99;96064.73;107148;1274;102116;-78
2022/06/20 08:18:54;;;;;;;3.70;1.70;;;;;;;43.55;16.06;96066.36;107172;1274;155840;-80
2022/06/20 08:21:30;;;;;;;5.50;1.80;;;;;;;44.16;15.08;96063.20;107206;1274;129455;-78
2022/06/20 08:24:07;;;;;;;5.20;1.90;;;;;;;43.95;14.43;96062.46;107363;1274;35102;-77
2022/06/20 08:26:48;;;;;;;2.40;1.90;;;;;;;43.89;14.91;96052.59;107189;1274;43967;-77
2022/06/20 08:29:25;;;;;;;4.70;2.20;;;;;;;44.04;15.26;96050.70;107299;1274;64246;-77
2022/06/20 08:32:07;;;;;;;3.30;2.00;;;;;;;44.90;14.27;96048.48;106764;1274;144869;-78
2022/06/20 08:34:44;;;;;;;4.50;2.20;;;;;;;45.03;14.48;96044.73;106499;1274;204548;-78
2022/06/20 08:37:21;;;;;;;3.20;2.20;;;;;;;45.03;14.16;96039.93;106712;1274;112584;-78
2022/06/20 08:40:00;;;;;;;3.60;2.10;;;;;;;45.11;14.03;96040.63;106666;1274;140473;-78
2022/06/20 08:42:59;;;;;;;5.10;2.30;;;;;;;45.13;13.82;96034.15;106696;1274;121552;-78
2022/06/20 08:45:43;;;;;;;2.80;1.70;;;;;;;44.36;14.04;96025.85;105185;1274;2140765;-80
2022/06/20 08:48:47;;;;;;;4.50;2.00;;;;;;;44.19;15.02;96024.06;106779;1275;150355;-82
2022/06/20 08:52:07;;;;;;;4.70;1.80;;;;;;;43.68;14.89;96014.50;107120;1274;113679;-81
2022/06/20 08:55:06;;;;;;;4.40;1.10;;;;;;;41.12;15.91;96006.02;107165;1274;102418;-80
2022/06/20 08:57:50;;;;;;;5.70;1.60;;;;;;;38.97;17.37;96000.65;107096;1274;140300;-81
2022/06/20 09:00:29;;;;;;;4.00;1.60;;;;;;;37.62;18.77;95994.55;107266;1274;128081;-81
2022/06/20 09:03:39;;;;;;;5.90;2.10;;;;;;;36.41;20.06;95988.11;106924;1274;148835;-80
2022/06/20 09:06:26;;;;;;;6.10;2.00;;;;;;;35.23;21.20;95983.29;106903;1274;134534;-81
2022/06/20 09:09:15;;;;;;;6.10;1.60;;;;;;;34.85;22.22;95973.34;107045;1274;124202;-79
2022/06/20 09:12:02;;;;;;;3.70;1.90;;;;;;;34.30;22.56;95968.65;107019;1274;114033;-79
2022/06/20 09:14:55;;;;;;;6.20;2.00;;;;;;;33.97;23.22;95960.27;106911;1274;101950;-81
2022/06/20 09:17:34;;;;;;;6.50;2.00;;;;;;;33.81;24.00;95950.98;107163;1274;110286;-81
2022/06/20 09:20:16;;;;;;;6.30;1.80;;;;;;;33.96;24.19;95951.09;107115;1274;185272;-80
2022/06/20 09:23:03;;;;;;;4.30;2.00;;;;;;;34.19;24.83;95947.70;107164;1274;108801;-79
2022/06/20 09:25:48;;;;;;;4.60;2.00;;;;;;;34.22;24.82;95947.84;106576;1274;165161;-80
2022/06/20 09:28:49;;;;;;;7.40;2.10;;;;;;;33.96;24.55;95943.67;107280;1274;101689;-80
2022/06/20 09:31:50;;;;;;;5.50;2.00;;;;;;;33.44;25.71;95938.96;107051;1274;116167;-79
2022/06/20 09:34:42;;;;;;;5.10;1.90;;;;;;;33.10;26.01;95929.80;103847;1274;2013379;-80
2022/06/20 09:37:36;;;;;;;6.80;2.30;;;;;;;32.99;26.06;95925.05;105898;1274;350963;-80
2022/06/20 09:40:18;;;;;;;5.00;2.00;;;;;;;33.42;27.58;95912.20;101518;1275;4616383;-79
2022/06/20 09:42:56;;;;;;;4.80;1.70;;;;;;;33.90;27.39;95913.51;105244;1274;2360917;-80
2022/06/20 09:45:38;;;;;;;5.20;2.00;;;;;;;33.95;26.85;95913.23;106833;1275;135066;-79
2022/06/20 09:48:18;;;;;;;5.90;2.40;;;;;;;33.55;27.57;95906.70;106339;1274;253892;-80
2022/06/20 09:50:59;;;;;;;7.30;1.90;;;;;;;33.76;27.81;95900.16;104161;1274;3118924;-81
2022/06/20 09:53:47;;;;;;;6.50;2.60;;;;;;;33.58;28.05;95890.36;105085;1274;1755262;-79
2022/06/20 09:56:29;;;;;;;3.80;2.20;;;;;;;33.76;28.41;95884.22;106460;1274;286508;-80
2022/06/20 09:59:09;;;;;;;4.00;2.00;;;;;;;33.90;27.77;95879.78;106749;1274;172630;-79
2022/06/20 10:01:49;;;;;;;6.70;2.60;;;;;;;34.08;27.91;95881.75;106300;1275;285034;-80
2022/06/20 10:04:31;;;;;;;6.10;2.40;;;;;;;34.33;28.35;95878.66;104985;1274;1962051;-80
2022/06/20 10:07:10;;;;;;;4.40;1.90;;;;;;;34.62;28.50;95877.77;107053;1274;118302;-80
2022/06/20 10:09:51;;;;;;;7.50;2.40;;;;;;;34.70;28.03;95872.44;107096;1274;131385;-81
2022/06/20 10:12:34;;;;;;;5.40;2.20;;;;;;;34.30;28.16;95864.26;107305;1274;79019;-80
2022/06/20 10:15:16;;;;;;;6.70;2.50;;;;;;;33.78;27.48;95863.10;106893;1274;142922;-80
2022/06/20 10:17:57;;;;;;;6.10;2.00;;;;;;;33.66;28.08;95859.52;105853;1274;1856354;-80
2022/06/20 10:20:38;;;;;;;7.70;2.20;;;;;;;33.78;28.69;95857.05;107117;1274;116774;-79
2022/06/20 10:23:23;;;;;;;5.60;2.50;;;;;;;33.97;28.29;95855.05;106977;1275;154897;-80
2022/06/20 10:26:11;;;;;;;6.80;2.40;;;;;;;33.65;28.05;95853.02;107134;1274;106086;-79
2022/06/20 10:28:48;;;;;;;5.70;2.40;;;;;;;33.71;29.47;95848.17;107117;1274;117744;-81
2022/06/20 10:31:32;;;;;;;6.10;2.50;;;;;;;33.90;28.70;95847.89;107105;1274;126620;-81
2022/06/20 10:34:10;;;;;;;6.70;2.80;;;;;;;33.65;28.59;95846.03;105424;1275;1263063;-81
2022/06/20 10:36:56;;;;;;;6.50;2.30;;;;;;;33.40;29.10;95846.09;106975;1274;124484;-81
2022/06/20 10:39:41;;;;;;;6.90;2.50;;;;;;;33.59;29.58;95847.05;107102;1274;134421;-80
2022/06/20 10:42:27;;;;;;;4.00;2.20;;;;;;;33.81;30.42;95843.42;107194;1274;101768;-80
2022/06/20 10:45:19;;;;;;;6.50;2.10;;;;;;;34.02;29.54;95834.41;105225;1274;2254590;-79
2022/06/20 10:48:05;;;;;;;6.90;2.50;;;;;;;34.21;29.47;95834.84;107359;1274;94376;-80
2022/06/20 10:50:41;;;;;;;6.90;2.30;;;;;;;34.35;29.37;95842.19;107241;1274;110426;-81
2022/06/20 10:53:21;;;;;;;8.30;2.70;;;;;;;34.45;29.60;95845.65;107200;1274;109673;-81
2022/06/20 10:55:59;;;;;;;9.70;2.50;;;;;;;34.32;28.71;95847.73;107328;1274;86317;-81
2022/06/20 10:58:42;;;;;;;10.60;2.90;;;;;;;33.88;28.27;95845.61;107031;1275;115617;-81
2022/06/20 11:01:19;;;;;;;7.20;2.40;;;;;;;33.49;27.84;95850.94;107058;1274;144191;-80
2022/06/20 11:04:24;;;;;;;7.70;2.30;;;;;;;33.24;27.81;95848.32;107302;1274;179556;-81
2022/06/20 11:07:09;;;;;;;8.30;2.30;;;;;;;32.93;26.90;95848.35;107104;1274;115513;-81
2022/06/20 11:09:57;;;;;;;6.00;2.00;;;;;;;32.95;27.46;95852.61;107214;1274;169805;-81
2022/06/20 11:12:48;;;;;;;6.40;2.60;;;;;;;32.85;27.80;95857.41;107152;1274;98534;-82
2022/06/20 11:15:32;;;;;;;5.20;2.50;;;;;;;32.83;28.08;95856.40;107290;1274;93904;-80
2022/06/20 11:18:29;;;;;;;5.90;2.30;;;;;;;32.85;28.10;95846.34;107361;1274;35823;-82
2022/06/20 11:21:09;;;;;;;6.80;2.20;;;;;;;32.95;27.44;95845.88;107345;1274;33724;-81
2022/06/20 11:24:02;;;;;;;6.00;2.50;;;;;;;32.98;27.85;95844.52;107337;1274;44054;-82
2022/06/20 11:26:41;;;;;;;7.00;2.50;;;;;;;33.04;28.50;95846.64;107075;1274;63404;-79
2022/06/20 11:29:37;;;;;;;6.90;2.30;;;;;;;32.97;27.77;95850.75;105458;1274;1945624;-80
2022/06/20 11:32:19;;;;;;;5.40;2.70;;;;;;;32.80;26.40;95848.06;107277;1274;47495;-79
2022/06/20 11:35:08;;;;;;;9.50;2.60;;;;;;;32.57;27.10;95850.64;107292;1274;89109;-80
2022/06/20 11:37:57;;;;;;;9.10;2.60;;;;;;;32.61;27.45;95853.16;106831;1274;101205;-79
2022/06/20 11:40:47;;;;;;;6.10;2.40;;;;;;;32.56;26.96;95863.65;105456;1274;1689345;-80
2022/06/20 11:44:06;;;;;;;6.00;2.70;;;;;;;32.43;26.39;95865.02;107070;1274;92739;-79
2022/06/20 11:46:56;;;;;;;6.00;2.40;;;;;;;32.32;26.92;95854.98;107129;1274;134156;-82
2022/06/20 11:49:46;;;;;;;6.50;2.30;;;;;;;32.41;27.22;95856.67;107308;1272;33856;-82
2022/06/20 11:52:22;;;;;;;7.20;2.50;;;;;;;32.45;27.21;95860.56;107299;1274;37480;-82
2022/06/20 11:55:06;;;;;;;9.70;2.50;;;;;;;32.55;27.22;95863.60;107275;1274;76211;-78
2022/06/20 11:57:43;;;;;;;5.40;2.30;;;;;;;32.62;26.40;95860.96;107147;1274;95361;-78
2022/06/20 12:00:22;;;;;;;6.10;2.50;;;;;;;32.60;26.74;95856.23;107241;1274;72777;-78
2022/06/20 12:03:04;;;;;;;6.10;1.80;;;;;;;32.63;26.24;95853.77;107266;1274;41550;-78
2022/06/20 12:05:48;;;;;;;2.90;1.60;;;;;;;32.60;26.37;95853.41;107286;1274;32161;-78
2022/06/20 12:08:29;;;;;;;5.60;2.10;;;;;;;32.51;25.73;95842.27;107391;1274;28004;-83
2022/06/20 12:11:06;;;;;;;5.30;2.30;;;;;;;32.40;26.80;95834.75;107287;1275;51099;-82
2022/06/20 12:13:50;;;;;;;7.70;2.00;;;;;;;32.44;25.93;95827.41;107217;1274;30642;-84
2022/06/20 12:16:35;;;;;;;8.10;2.10;;;;;;;32.39;26.64;95826.09;107490;1274;41812;-78
2022/06/20 12:25:06;;;;;;;8.90;2.30;;;;;;;32.62;26.35;95826.08;107208;1275;50122;-79
2022/06/20 12:27:37;;;;;;;5.40;1.70;;;;;;;32.78;26.36;95822.55;107295;1274;43467;-78
2022/06/20 12:30:15;;;;;;;5.10;1.90;;;;;;;32.97;26.22;95818.88;107370;1274;40823;-78
2022/06/20 12:32:54;;;;;;;9.10;2.30;;;;;;;32.99;26.04;95815.36;107365;1274;31837;-78
2022/06/20 12:35:33;;;;;;;6.10;2.20;;;;;;;32.97;26.46;95811.91;107373;1274;53175;-78